1955 NOT_NAMED (1955012S15120)


IBTrACS version v04r00. Visit IBTrACS website for data access.
Please direct all questions to the IBTrACS Q and A forum

Storm track - Intensity - Wind Radii - Intensity Data - Source Data - All data

Summary Information

Storm ID 1955012S15120
Start Jan 11 23Z
Landfall Jan 13 09Z
End Jan 15 23Z
ATCF IDs ,SH091955
Track status Best track data.

Storm track plot

Map of storm track

Intensity plots

No Intensity information for this storm


Radial wind information

No radial wind information for this storm


Position and Intensity Table

BASIN ISO_TIME_________ NATURE LAT LON
degrees north degrees east
SI 1955-01-11 23:00:00 NR -15.10 119.90
SI 1955-01-12 00:00:00 TS -15.20 119.89
SI 03:00:00 TS -15.51 119.79
SI 06:00:00 TS -15.82 119.72
SI 09:00:00 TS -16.15 119.69
SI 11:00:00 TS -16.38 119.69
SI 12:00:00 TS -16.50 119.70
SI 15:00:00 TS -16.87 119.73
SI 18:00:00 TS -17.27 119.80
SI 21:00:00 TS -17.68 119.92
SI 23:00:00 TS -18.01 120.03
SI 1955-01-13 00:00:00 TS -18.20 120.08
SI 03:00:00 TS -18.91 120.27
SI 06:00:00 TS -19.69 120.49
SI 09:00:00 TS -20.43 120.74
SI 11:00:00 TS -20.89 120.91
SI 12:00:00 TS -21.10 121.00
SI 15:00:00 TS -21.70 121.22
SI 18:00:00 TS -22.22 121.44
SI 21:00:00 TS -22.70 121.70
SI 23:00:00 TS -22.98 121.83
SI 1955-01-14 00:00:00 TS -23.11 121.87
SI 03:00:00 TS -23.42 121.89
SI 06:00:00 TS -23.70 121.77
SI 09:00:00 TS -24.01 121.58
SI 11:00:00 TS -24.24 121.40
SI 12:00:00 TS -24.38 121.31
SI 15:00:00 TS -24.87 120.98
SI 18:00:00 TS -25.38 120.62
SI 21:00:00 TS -25.87 120.29
SI 23:00:00 TS -26.17 120.09
SI 1955-01-15 00:00:00 TS -26.31 120.00
SI 03:00:00 TS -26.71 119.78
SI 06:00:00 TS -27.11 119.59
SI 09:00:00 TS -27.53 119.39
SI 11:00:00 TS -27.83 119.27
SI 12:00:00 TS -27.98 119.22
SI 15:00:00 TS -28.47 119.10
SI 18:00:00 TS -28.98 119.00
SI 21:00:00 NR -29.52 118.88
SI 23:00:00 NR -29.90 118.80

Source Information

Agency Information
USA bsh091955.txt
TOKYO
CMA
HKO
NEWDELHI
REUNION
BOM
NADI
WELLINGTON
DS824 s_hem.dat:635:09S
TD9636 cons_worldwide_trop_cyclone_18710101-19891231-006:Line=4182
TD9635
NEUMANN
MLC

All available IBTrACS Data

SEASON BASIN SUBBASIN ISO_TIME_________ NATURE LAT LON DIST2LAND LANDFALL IFLAG USA AGENCY USA ATCF_ID USA LAT USA LON USA SSHS DS824 LAT DS824 LON DS824 STAGE TD9636 LAT TD9636 LON TD9636 STAGE STORM SPEED STORM DIR
Year degrees north degrees east km km degrees north degrees east 1 degrees north degrees east degrees north degrees east kts degrees
1955 SI WA 1955-01-11 23:00:00 NR -15.10 119.90 340 333 __________O___ -1 -15.10 119.90 7 6 184
1955 SI WA 1955-01-12 00:00:00 TS -15.20 119.89 333 321 O________OP___ jtwc_sh SH091955 -15.20 119.90 -1 -15.20 119.90 TC -15.21 119.88 7 6 194
1955 SI WA 03:00:00 TS -15.51 119.79 321 309 P________PP___ SH091955 -15.49 119.78 -1 -15.49 119.78 TC -15.54 119.81 7 6 195
1955 SI WA 06:00:00 TS -15.82 119.72 313 298 O________OP___ jtwc_sh SH091955 -15.80 119.70 -1 -15.80 119.70 TC -15.86 119.75 7 7 188
1955 SI WA 09:00:00 TS -16.15 119.69 293 284 P________PP___ SH091955 -16.13 119.68 -1 -16.13 119.68 TC -16.19 119.71 7 7 183
1955 SI WA 11:00:00 TS -16.38 119.69 284 280 P________PO___ SH091955 -16.37 119.69 -1 -16.37 119.69 TC -16.40 119.70 7 7 176
1955 SI WA 12:00:00 TS -16.50 119.70 280 270 O________OP___ jtwc_sh SH091955 -16.50 119.70 -1 -16.50 119.70 TC -16.51 119.70 7 7 176
1955 SI WA 15:00:00 TS -16.87 119.73 266 248 P________PP___ SH091955 -16.88 119.73 -1 -16.88 119.73 TC -16.84 119.73 7 8 173
1955 SI WA 18:00:00 TS -17.27 119.80 246 215 O________OP___ jtwc_sh SH091955 -17.30 119.80 -1 -17.30 119.80 TC -17.21 119.80 7 8 167
1955 SI WA 21:00:00 TS -17.68 119.92 215 191 P________PP___ SH091955 -17.70 119.93 -1 -17.70 119.93 TC -17.65 119.90 7 9 164
1955 SI WA 23:00:00 TS -18.01 120.03 191 174 P________PO___ SH091955 -18.01 120.04 -1 -18.01 120.04 TC -18.00 120.00 7 11 163
1955 SI WA 1955-01-13 00:00:00 TS -18.20 120.08 174 98 O________OP___ jtwc_sh SH091955 -18.20 120.10 -1 -18.20 120.10 TC -18.21 120.05 7 14 165
1955 SI WA 03:00:00 TS -18.91 120.27 98 22 P________PP___ SH091955 -18.91 120.29 -1 -18.91 120.29 TC -18.91 120.25 7 15 165
1955 SI WA 06:00:00 TS -19.69 120.49 11 0 O________OP___ jtwc_sh SH091955 -19.70 120.50 -1 -19.70 120.50 TC -19.67 120.48 7 16 164
1955 SI WA 09:00:00 TS -20.43 120.74 0 0 P________PP___ SH091955 -20.43 120.75 -1 -20.43 120.75 TC -20.43 120.73 7 15 162
1955 SI WA 11:00:00 TS -20.89 120.91 0 0 P________PO___ SH091955 -20.89 120.92 -1 -20.89 120.92 TC -20.90 120.90 7 14 161
1955 SI WA 12:00:00 TS -21.10 121.00 0 0 O________OP___ jtwc_sh SH091955 -21.10 121.00 -1 -21.10 121.00 TC -21.11 120.99 7 13 160
1955 SI WA 15:00:00 TS -21.70 121.22 0 0 P________PP___ SH091955 -21.69 121.20 -1 -21.69 121.20 TC -21.71 121.27 7 12 160
1955 SI WA 18:00:00 TS -22.22 121.44 0 0 O________OP___ jtwc_sh SH091955 -22.20 121.40 -1 -22.20 121.40 TC -22.25 121.53 7 11 156
1955 SI WA 21:00:00 TS -22.70 121.70 0 0 P________PP___ SH091955 -22.69 121.69 -1 -22.69 121.69 TC -22.72 121.72 7 10 155
1955 SI WA 23:00:00 TS -22.98 121.83 0 0 P________PO___ SH091955 -22.97 121.85 -1 -22.97 121.85 TC -23.00 121.80 7 9 159
1955 SI WA 1955-01-14 00:00:00 TS -23.11 121.87 0 0 O________OP___ jtwc_sh SH091955 -23.10 121.90 -1 -23.10 121.90 TC -23.12 121.82 7 7 173
1955 SI WA 03:00:00 TS -23.42 121.89 0 0 P________PP___ SH091955 -23.41 121.93 -1 -23.41 121.93 TC -23.43 121.82 7 6 189
1955 SI WA 06:00:00 TS -23.70 121.77 0 0 O________OP___ jtwc_sh SH091955 -23.70 121.80 -1 -23.70 121.80 TC -23.70 121.72 7 7 206
1955 SI WA 09:00:00 TS -24.01 121.58 0 0 P________PP___ SH091955 -24.02 121.59 -1 -24.02 121.59 TC -23.98 121.55 7 8 212
1955 SI WA 11:00:00 TS -24.24 121.40 0 0 P________PO___ SH091955 -24.26 121.41 -1 -24.26 121.41 TC -24.20 121.40 7 9 214
1955 SI WA 12:00:00 TS -24.38 121.31 0 0 O________OP___ jtwc_sh SH091955 -24.40 121.30 -1 -24.40 121.30 TC -24.34 121.32 7 11 212
1955 SI WA 15:00:00 TS -24.87 120.98 0 0 P________PP___ SH091955 -24.89 120.96 -1 -24.89 120.96 TC -24.83 121.01 7 12 212
1955 SI WA 18:00:00 TS -25.38 120.62 0 0 O________OP___ jtwc_sh SH091955 -25.40 120.60 -1 -25.40 120.60 TC -25.35 120.66 7 12 212
1955 SI WA 21:00:00 TS -25.87 120.29 0 0 P________PP___ SH091955 -25.86 120.28 -1 -25.86 120.28 TC -25.87 120.31 7 11 211
1955 SI WA 23:00:00 TS -26.17 120.09 0 0 P________PO___ SH091955 -26.16 120.09 -1 -26.16 120.09 TC -26.20 120.10 7 10 210
1955 SI WA 1955-01-15 00:00:00 TS -26.31 120.00 0 0 O________OP___ jtwc_sh SH091955 -26.30 120.00 -1 -26.30 120.00 TC -26.34 120.01 7 9 207
1955 SI WA 03:00:00 TS -26.71 119.78 0 0 P________PP___ SH091955 -26.70 119.78 -1 -26.70 119.78 TC -26.74 119.78 7 9 205
1955 SI WA 06:00:00 TS -27.11 119.59 0 0 O________OP___ jtwc_sh SH091955 -27.10 119.60 -1 -27.10 119.60 TC -27.12 119.57 7 9 203
1955 SI WA 09:00:00 TS -27.53 119.39 0 0 P________PP___ SH091955 -27.54 119.39 -1 -27.54 119.39 TC -27.52 119.40 7 9 202
1955 SI WA 11:00:00 TS -27.83 119.27 0 0 P________PO___ SH091955 -27.84 119.26 -1 -27.84 119.26 TC -27.80 119.30 7 10 198
1955 SI WA 12:00:00 TS -27.98 119.22 0 0 O________OP___ jtwc_sh SH091955 -28.00 119.20 -1 -28.00 119.20 TC -27.95 119.25 7 10 194
1955 SI WA 15:00:00 TS -28.47 119.10 0 0 P________PP___ SH091955 -28.49 119.08 -1 -28.49 119.08 TC -28.44 119.12 7 10 191
1955 SI WA 18:00:00 TS -28.98 119.00 0 0 O________OP___ jtwc_sh SH091955 -29.00 119.00 -1 -29.00 119.00 TC -28.97 118.99 7 11 190
1955 SI WA 21:00:00 NR -29.52 118.88 0 0 __________P___ SH091955 -1 TC -29.52 118.88 7 11 191
1955 SI WA 23:00:00 NR -29.90 118.80 0 __________O___ SH091955 -1 TC -29.90 118.80 7 11 190